sensor_id;sensor_type;location;lat;lon;timestamp;P1;durP1;ratioP1;P2;durP2;ratioP2
16705;SDS011;8469;60.136;15.180;2022-10-22T00:00:49;4.60;;;2.40;;
16705;SDS011;8469;60.136;15.180;2022-10-22T00:03:16;2.65;;;2.25;;
16705;SDS011;8469;60.136;15.180;2022-10-22T00:05:44;3.27;;;1.60;;
16705;SDS011;8469;60.136;15.180;2022-10-22T00:08:11;8.25;;;1.70;;
16705;SDS011;8469;60.136;15.180;2022-10-22T00:10:39;1.83;;;1.73;;
16705;SDS011;8469;60.136;15.180;2022-10-22T00:13:07;4.22;;;1.90;;
16705;SDS011;8469;60.136;15.180;2022-10-22T00:15:34;3.67;;;2.10;;
16705;SDS011;8469;60.136;15.180;2022-10-22T00:18:01;2.58;;;1.95;;
16705;SDS011;8469;60.136;15.180;2022-10-22T00:20:29;2.25;;;1.90;;
16705;SDS011;8469;60.136;15.180;2022-10-22T00:22:56;2.67;;;2.05;;
16705;SDS011;8469;60.136;15.180;2022-10-22T00:25:24;2.40;;;2.00;;
16705;SDS011;8469;60.136;15.180;2022-10-22T00:27:51;6.62;;;4.42;;
16705;SDS011;8469;60.136;15.180;2022-10-22T00:30:18;2.07;;;1.87;;
16705;SDS011;8469;60.136;15.180;2022-10-22T00:32:46;3.00;;;2.12;;
16705;SDS011;8469;60.136;15.180;2022-10-22T00:35:13;1.80;;;1.70;;
16705;SDS011;8469;60.136;15.180;2022-10-22T00:37:40;1.77;;;1.67;;
16705;SDS011;8469;60.136;15.180;2022-10-22T00:40:08;4.30;;;2.00;;
16705;SDS011;8469;60.136;15.180;2022-10-22T00:42:35;1.85;;;1.72;;
16705;SDS011;8469;60.136;15.180;2022-10-22T00:47:39;7.15;;;3.30;;
16705;SDS011;8469;60.136;15.180;2022-10-22T00:50:08;2.30;;;2.10;;
16705;SDS011;8469;60.136;15.180;2022-10-22T00:52:35;3.92;;;2.10;;
16705;SDS011;8469;60.136;15.180;2022-10-22T00:55:03;3.90;;;1.50;;
16705;SDS011;8469;60.136;15.180;2022-10-22T00:57:31;2.33;;;1.52;;
16705;SDS011;8469;60.136;15.180;2022-10-22T00:59:58;4.30;;;1.75;;
16705;SDS011;8469;60.136;15.180;2022-10-22T01:02:26;3.65;;;2.00;;
16705;SDS011;8469;60.136;15.180;2022-10-22T01:04:53;2.12;;;1.87;;
16705;SDS011;8469;60.136;15.180;2022-10-22T01:07:21;1.70;;;1.60;;
16705;SDS011;8469;60.136;15.180;2022-10-22T01:10:02;2.27;;;1.72;;
16705;SDS011;8469;60.136;15.180;2022-10-22T01:12:36;3.10;;;2.02;;
16705;SDS011;8469;60.136;15.180;2022-10-22T01:22:43;4.90;;;2.42;;
16705;SDS011;8469;60.136;15.180;2022-10-22T01:25:23;2.50;;;2.12;;
16705;SDS011;8469;60.136;15.180;2022-10-22T01:30:14;3.87;;;2.00;;
16705;SDS011;8469;60.136;15.180;2022-10-22T01:32:48;3.92;;;2.20;;
16705;SDS011;8469;60.136;15.180;2022-10-22T01:35:17;2.60;;;2.10;;
16705;SDS011;8469;60.136;15.180;2022-10-22T01:37:47;3.65;;;2.12;;
16705;SDS011;8469;60.136;15.180;2022-10-22T01:40:14;5.10;;;2.35;;
16705;SDS011;8469;60.136;15.180;2022-10-22T01:42:42;5.92;;;2.00;;
16705;SDS011;8469;60.136;15.180;2022-10-22T01:45:09;5.08;;;1.90;;
16705;SDS011;8469;60.136;15.180;2022-10-22T01:52:57;2.05;;;1.60;;
16705;SDS011;8469;60.136;15.180;2022-10-22T01:55:26;1.87;;;1.55;;
16705;SDS011;8469;60.136;15.180;2022-10-22T01:57:54;1.90;;;1.60;;
16705;SDS011;8469;60.136;15.180;2022-10-22T02:00:21;1.90;;;1.80;;
16705;SDS011;8469;60.136;15.180;2022-10-22T02:02:59;2.85;;;1.80;;
16705;SDS011;8469;60.136;15.180;2022-10-22T02:08:09;2.95;;;1.80;;
16705;SDS011;8469;60.136;15.180;2022-10-22T02:10:38;3.37;;;1.80;;
16705;SDS011;8469;60.136;15.180;2022-10-22T02:13:11;3.65;;;1.77;;
16705;SDS011;8469;60.136;15.180;2022-10-22T02:15:38;3.02;;;1.87;;
16705;SDS011;8469;60.136;15.180;2022-10-22T02:18:06;2.08;;;1.67;;
16705;SDS011;8469;60.136;15.180;2022-10-22T02:20:34;1.80;;;1.70;;
16705;SDS011;8469;60.136;15.180;2022-10-22T02:23:02;1.90;;;1.80;;
16705;SDS011;8469;60.136;15.180;2022-10-22T02:25:31;3.15;;;1.90;;
16705;SDS011;8469;60.136;15.180;2022-10-22T02:30:30;1.72;;;1.60;;
16705;SDS011;8469;60.136;15.180;2022-10-22T02:33:03;1.80;;;1.70;;
16705;SDS011;8469;60.136;15.180;2022-10-22T02:35:30;2.47;;;1.90;;
16705;SDS011;8469;60.136;15.180;2022-10-22T02:37:58;2.08;;;1.65;;
16705;SDS011;8469;60.136;15.180;2022-10-22T02:40:25;1.82;;;1.57;;
16705;SDS011;8469;60.136;15.180;2022-10-22T02:42:54;2.05;;;1.50;;
16705;SDS011;8469;60.136;15.180;2022-10-22T02:45:21;1.92;;;1.65;;
16705;SDS011;8469;60.136;15.180;2022-10-22T02:47:49;2.17;;;1.90;;
16705;SDS011;8469;60.136;15.180;2022-10-22T02:50:16;1.87;;;1.77;;
16705;SDS011;8469;60.136;15.180;2022-10-22T02:52:44;2.60;;;1.75;;
16705;SDS011;8469;60.136;15.180;2022-10-22T02:55:11;1.82;;;1.72;;
16705;SDS011;8469;60.136;15.180;2022-10-22T02:57:38;3.83;;;1.90;;
16705;SDS011;8469;60.136;15.180;2022-10-22T03:00:06;1.77;;;1.67;;
16705;SDS011;8469;60.136;15.180;2022-10-22T03:02:34;4.63;;;2.17;;
16705;SDS011;8469;60.136;15.180;2022-10-22T03:05:01;2.30;;;1.90;;
16705;SDS011;8469;60.136;15.180;2022-10-22T03:07:30;4.30;;;2.00;;
16705;SDS011;8469;60.136;15.180;2022-10-22T03:09:57;2.27;;;1.90;;
16705;SDS011;8469;60.136;15.180;2022-10-22T03:12:24;1.83;;;1.73;;
16705;SDS011;8469;60.136;15.180;2022-10-22T03:14:52;3.60;;;1.90;;
16705;SDS011;8469;60.136;15.180;2022-10-22T03:17:19;2.80;;;1.73;;
16705;SDS011;8469;60.136;15.180;2022-10-22T03:19:46;3.02;;;1.82;;
16705;SDS011;8469;60.136;15.180;2022-10-22T03:22:14;1.50;;;1.40;;
16705;SDS011;8469;60.136;15.180;2022-10-22T03:24:43;2.10;;;1.90;;
16705;SDS011;8469;60.136;15.180;2022-10-22T03:27:11;2.67;;;1.67;;
16705;SDS011;8469;60.136;15.180;2022-10-22T03:29:39;1.72;;;1.62;;
16705;SDS011;8469;60.136;15.180;2022-10-22T03:32:07;2.05;;;1.80;;
16705;SDS011;8469;60.136;15.180;2022-10-22T03:34:35;4.47;;;1.80;;
16705;SDS011;8469;60.136;15.180;2022-10-22T03:37:02;7.03;;;1.90;;
16705;SDS011;8469;60.136;15.180;2022-10-22T03:39:30;4.37;;;1.80;;
16705;SDS011;8469;60.136;15.180;2022-10-22T03:41:59;2.05;;;1.85;;
16705;SDS011;8469;60.136;15.180;2022-10-22T03:44:26;2.42;;;1.70;;
16705;SDS011;8469;60.136;15.180;2022-10-22T03:46:54;4.12;;;1.82;;
16705;SDS011;8469;60.136;15.180;2022-10-22T03:49:21;2.55;;;1.90;;
16705;SDS011;8469;60.136;15.180;2022-10-22T03:51:49;2.15;;;1.82;;
16705;SDS011;8469;60.136;15.180;2022-10-22T03:54:16;2.52;;;1.90;;
16705;SDS011;8469;60.136;15.180;2022-10-22T03:56:43;2.45;;;2.25;;
16705;SDS011;8469;60.136;15.180;2022-10-22T03:59:10;1.98;;;1.85;;
16705;SDS011;8469;60.136;15.180;2022-10-22T04:01:38;2.10;;;1.90;;
16705;SDS011;8469;60.136;15.180;2022-10-22T04:04:05;2.87;;;1.95;;
16705;SDS011;8469;60.136;15.180;2022-10-22T04:06:33;5.85;;;1.80;;
16705;SDS011;8469;60.136;15.180;2022-10-22T04:09:01;2.35;;;1.80;;
16705;SDS011;8469;60.136;15.180;2022-10-22T04:11:28;2.35;;;1.80;;
16705;SDS011;8469;60.136;15.180;2022-10-22T04:13:56;3.72;;;1.85;;
16705;SDS011;8469;60.136;15.180;2022-10-22T04:16:23;3.85;;;2.08;;
16705;SDS011;8469;60.136;15.180;2022-10-22T04:18:52;2.42;;;2.22;;
16705;SDS011;8469;60.136;15.180;2022-10-22T04:21:19;1.90;;;1.80;;
16705;SDS011;8469;60.136;15.180;2022-10-22T04:23:47;2.20;;;2.00;;
16705;SDS011;8469;60.136;15.180;2022-10-22T04:26:17;2.90;;;1.95;;
16705;SDS011;8469;60.136;15.180;2022-10-22T04:28:46;2.00;;;1.80;;
16705;SDS011;8469;60.136;15.180;2022-10-22T04:31:14;2.20;;;1.97;;
16705;SDS011;8469;60.136;15.180;2022-10-22T04:33:42;2.30;;;1.90;;
16705;SDS011;8469;60.136;15.180;2022-10-22T04:36:10;2.08;;;1.85;;
16705;SDS011;8469;60.136;15.180;2022-10-22T04:38:38;1.95;;;1.80;;
16705;SDS011;8469;60.136;15.180;2022-10-22T04:41:09;2.02;;;1.90;;
16705;SDS011;8469;60.136;15.180;2022-10-22T04:43:36;2.30;;;1.72;;
16705;SDS011;8469;60.136;15.180;2022-10-22T04:46:04;3.67;;;1.92;;
16705;SDS011;8469;60.136;15.180;2022-10-22T04:48:34;2.95;;;2.02;;
16705;SDS011;8469;60.136;15.180;2022-10-22T04:51:01;2.20;;;2.00;;
16705;SDS011;8469;60.136;15.180;2022-10-22T04:53:29;3.45;;;1.98;;
16705;SDS011;8469;60.136;15.180;2022-10-22T04:56:07;2.02;;;1.87;;
16705;SDS011;8469;60.136;15.180;2022-10-22T04:58:34;2.35;;;2.00;;
16705;SDS011;8469;60.136;15.180;2022-10-22T05:01:23;2.42;;;2.20;;
16705;SDS011;8469;60.136;15.180;2022-10-22T05:03:30;3.72;;;1.92;;
16705;SDS011;8469;60.136;15.180;2022-10-22T05:05:59;3.33;;;2.10;;
16705;SDS011;8469;60.136;15.180;2022-10-22T05:08:27;2.20;;;1.95;;
16705;SDS011;8469;60.136;15.180;2022-10-22T05:10:56;2.58;;;1.90;;
16705;SDS011;8469;60.136;15.180;2022-10-22T05:13:23;2.35;;;2.12;;
16705;SDS011;8469;60.136;15.180;2022-10-22T05:15:50;1.90;;;1.80;;
16705;SDS011;8469;60.136;15.180;2022-10-22T05:18:18;2.42;;;2.12;;
16705;SDS011;8469;60.136;15.180;2022-10-22T05:20:45;4.67;;;2.30;;
16705;SDS011;8469;60.136;15.180;2022-10-22T05:23:12;5.53;;;2.30;;
16705;SDS011;8469;60.136;15.180;2022-10-22T05:25:39;4.72;;;2.47;;
16705;SDS011;8469;60.136;15.180;2022-10-22T05:28:06;6.50;;;2.67;;
16705;SDS011;8469;60.136;15.180;2022-10-22T05:30:34;3.85;;;2.22;;
16705;SDS011;8469;60.136;15.180;2022-10-22T05:33:01;8.90;;;2.40;;
16705;SDS011;8469;60.136;15.180;2022-10-22T05:35:29;3.60;;;2.52;;
16705;SDS011;8469;60.136;15.180;2022-10-22T05:37:56;6.12;;;2.58;;
16705;SDS011;8469;60.136;15.180;2022-10-22T05:40:24;5.35;;;2.47;;
16705;SDS011;8469;60.136;15.180;2022-10-22T05:42:52;6.30;;;2.70;;
16705;SDS011;8469;60.136;15.180;2022-10-22T05:45:19;8.03;;;2.80;;
16705;SDS011;8469;60.136;15.180;2022-10-22T05:47:46;4.35;;;2.80;;
16705;SDS011;8469;60.136;15.180;2022-10-22T05:50:13;5.25;;;3.05;;
16705;SDS011;8469;60.136;15.180;2022-10-22T05:52:41;8.23;;;3.15;;
16705;SDS011;8469;60.136;15.180;2022-10-22T05:55:08;5.15;;;2.70;;
16705;SDS011;8469;60.136;15.180;2022-10-22T05:57:35;7.53;;;3.00;;
16705;SDS011;8469;60.136;15.180;2022-10-22T06:00:03;9.63;;;3.47;;
16705;SDS011;8469;60.136;15.180;2022-10-22T06:02:30;6.60;;;3.47;;
16705;SDS011;8469;60.136;15.180;2022-10-22T06:04:58;6.87;;;3.60;;
16705;SDS011;8469;60.136;15.180;2022-10-22T06:07:25;7.97;;;4.15;;
16705;SDS011;8469;60.136;15.180;2022-10-22T06:09:52;11.65;;;5.00;;
16705;SDS011;8469;60.136;15.180;2022-10-22T06:12:20;9.38;;;4.47;;
16705;SDS011;8469;60.136;15.180;2022-10-22T06:14:47;11.30;;;3.90;;
16705;SDS011;8469;60.136;15.180;2022-10-22T06:17:14;11.43;;;4.45;;
16705;SDS011;8469;60.136;15.180;2022-10-22T06:19:41;7.47;;;3.98;;
16705;SDS011;8469;60.136;15.180;2022-10-22T06:22:09;9.50;;;4.37;;
16705;SDS011;8469;60.136;15.180;2022-10-22T06:24:36;9.63;;;4.17;;
16705;SDS011;8469;60.136;15.180;2022-10-22T06:27:03;10.75;;;4.42;;
16705;SDS011;8469;60.136;15.180;2022-10-22T06:29:31;13.40;;;4.62;;
16705;SDS011;8469;60.136;15.180;2022-10-22T06:31:59;12.85;;;4.92;;
16705;SDS011;8469;60.136;15.180;2022-10-22T06:34:26;13.43;;;4.67;;
16705;SDS011;8469;60.136;15.180;2022-10-22T06:36:54;10.70;;;4.42;;
16705;SDS011;8469;60.136;15.180;2022-10-22T06:39:21;14.33;;;4.90;;
16705;SDS011;8469;60.136;15.180;2022-10-22T06:41:48;12.53;;;5.00;;
16705;SDS011;8469;60.136;15.180;2022-10-22T06:44:17;11.55;;;5.37;;
16705;SDS011;8469;60.136;15.180;2022-10-22T06:46:44;13.18;;;5.47;;
16705;SDS011;8469;60.136;15.180;2022-10-22T06:49:12;17.27;;;5.92;;
16705;SDS011;8469;60.136;15.180;2022-10-22T06:51:40;15.60;;;5.97;;
16705;SDS011;8469;60.136;15.180;2022-10-22T06:54:07;13.75;;;5.90;;
16705;SDS011;8469;60.136;15.180;2022-10-22T06:56:35;13.72;;;5.92;;
16705;SDS011;8469;60.136;15.180;2022-10-22T06:59:02;14.85;;;6.58;;
16705;SDS011;8469;60.136;15.180;2022-10-22T07:01:31;14.10;;;6.80;;
16705;SDS011;8469;60.136;15.180;2022-10-22T07:03:59;21.00;;;7.27;;
16705;SDS011;8469;60.136;15.180;2022-10-22T07:06:27;21.52;;;7.70;;
16705;SDS011;8469;60.136;15.180;2022-10-22T07:08:55;20.88;;;7.47;;
16705;SDS011;8469;60.136;15.180;2022-10-22T07:11:28;29.15;;;7.42;;
16705;SDS011;8469;60.136;15.180;2022-10-22T07:13:53;21.65;;;8.93;;
16705;SDS011;8469;60.136;15.180;2022-10-22T07:16:20;24.40;;;8.70;;
16705;SDS011;8469;60.136;15.180;2022-10-22T07:18:48;17.73;;;7.72;;
16705;SDS011;8469;60.136;15.180;2022-10-22T07:21:17;17.42;;;7.35;;
16705;SDS011;8469;60.136;15.180;2022-10-22T07:23:45;18.62;;;7.35;;
16705;SDS011;8469;60.136;15.180;2022-10-22T07:26:14;53.08;;;8.15;;
16705;SDS011;8469;60.136;15.180;2022-10-22T07:28:42;41.25;;;8.38;;
16705;SDS011;8469;60.136;15.180;2022-10-22T07:31:10;30.77;;;8.60;;
16705;SDS011;8469;60.136;15.180;2022-10-22T07:33:37;22.80;;;8.38;;
16705;SDS011;8469;60.136;15.180;2022-10-22T07:36:06;44.67;;;7.97;;
16705;SDS011;8469;60.136;15.180;2022-10-22T07:38:34;29.32;;;8.75;;
16705;SDS011;8469;60.136;15.180;2022-10-22T07:41:01;39.63;;;8.30;;
16705;SDS011;8469;60.136;15.180;2022-10-22T07:43:29;22.85;;;8.90;;
16705;SDS011;8469;60.136;15.180;2022-10-22T07:45:56;30.85;;;9.28;;
16705;SDS011;8469;60.136;15.180;2022-10-22T07:48:24;46.05;;;8.55;;
16705;SDS011;8469;60.136;15.180;2022-10-22T07:50:52;53.33;;;9.43;;
16705;SDS011;8469;60.136;15.180;2022-10-22T07:53:19;25.82;;;8.65;;
16705;SDS011;8469;60.136;15.180;2022-10-22T07:55:47;61.68;;;11.38;;
16705;SDS011;8469;60.136;15.180;2022-10-22T07:58:16;43.00;;;10.30;;
16705;SDS011;8469;60.136;15.180;2022-10-22T08:00:43;31.48;;;9.63;;
16705;SDS011;8469;60.136;15.180;2022-10-22T08:03:11;30.27;;;11.63;;
16705;SDS011;8469;60.136;15.180;2022-10-22T08:05:39;37.63;;;11.40;;
16705;SDS011;8469;60.136;15.180;2022-10-22T08:08:09;30.27;;;8.85;;
16705;SDS011;8469;60.136;15.180;2022-10-22T08:10:36;26.10;;;9.60;;
16705;SDS011;8469;60.136;15.180;2022-10-22T08:13:04;24.57;;;9.45;;
16705;SDS011;8469;60.136;15.180;2022-10-22T08:15:31;16.30;;;8.55;;
16705;SDS011;8469;60.136;15.180;2022-10-22T08:17:58;20.52;;;9.05;;
16705;SDS011;8469;60.136;15.180;2022-10-22T08:20:26;20.85;;;9.20;;
16705;SDS011;8469;60.136;15.180;2022-10-22T08:22:53;21.40;;;10.10;;
16705;SDS011;8469;60.136;15.180;2022-10-22T08:25:20;19.98;;;8.35;;
16705;SDS011;8469;60.136;15.180;2022-10-22T08:27:48;21.87;;;9.03;;
16705;SDS011;8469;60.136;15.180;2022-10-22T08:30:15;17.52;;;8.00;;
16705;SDS011;8469;60.136;15.180;2022-10-22T08:32:43;14.45;;;7.70;;
16705;SDS011;8469;60.136;15.180;2022-10-22T08:35:10;16.50;;;7.15;;
16705;SDS011;8469;60.136;15.180;2022-10-22T08:37:37;11.50;;;7.03;;
16705;SDS011;8469;60.136;15.180;2022-10-22T08:40:05;14.07;;;7.25;;
16705;SDS011;8469;60.136;15.180;2022-10-22T08:42:47;13.90;;;7.05;;
16705;SDS011;8469;60.136;15.180;2022-10-22T08:47:58;9.53;;;6.03;;
16705;SDS011;8469;60.136;15.180;2022-10-22T08:50:57;11.80;;;6.62;;
16705;SDS011;8469;60.136;15.180;2022-10-22T08:52:59;9.65;;;5.92;;
16705;SDS011;8469;60.136;15.180;2022-10-22T08:55:28;9.63;;;5.80;;
16705;SDS011;8469;60.136;15.180;2022-10-22T09:00:35;8.35;;;5.20;;
16705;SDS011;8469;60.136;15.180;2022-10-22T09:08:12;10.60;;;6.15;;
16705;SDS011;8469;60.136;15.180;2022-10-22T09:10:43;9.63;;;5.55;;
16705;SDS011;8469;60.136;15.180;2022-10-22T09:13:15;9.03;;;4.87;;
16705;SDS011;8469;60.136;15.180;2022-10-22T09:15:41;8.88;;;5.35;;
16705;SDS011;8469;60.136;15.180;2022-10-22T09:20:53;7.40;;;5.60;;
16705;SDS011;8469;60.136;15.180;2022-10-22T09:23:28;31.45;;;13.40;;
16705;SDS011;8469;60.136;15.180;2022-10-22T09:25:52;9.90;;;5.55;;
16705;SDS011;8469;60.136;15.180;2022-10-22T09:28:20;9.18;;;5.30;;
16705;SDS011;8469;60.136;15.180;2022-10-22T09:30:48;9.87;;;5.33;;
16705;SDS011;8469;60.136;15.180;2022-10-22T09:33:22;9.28;;;6.47;;
16705;SDS011;8469;60.136;15.180;2022-10-22T09:35:47;10.32;;;6.75;;
16705;SDS011;8469;60.136;15.180;2022-10-22T09:38:17;11.03;;;6.33;;
16705;SDS011;8469;60.136;15.180;2022-10-22T09:40:46;10.38;;;6.60;;
16705;SDS011;8469;60.136;15.180;2022-10-22T09:43:13;8.38;;;6.03;;
16705;SDS011;8469;60.136;15.180;2022-10-22T09:45:41;8.53;;;5.08;;
16705;SDS011;8469;60.136;15.180;2022-10-22T09:50:43;8.25;;;5.30;;
16705;SDS011;8469;60.136;15.180;2022-10-22T09:53:12;7.67;;;4.78;;
16705;SDS011;8469;60.136;15.180;2022-10-22T09:55:40;9.63;;;5.03;;
16705;SDS011;8469;60.136;15.180;2022-10-22T09:58:10;6.50;;;4.42;;
16705;SDS011;8469;60.136;15.180;2022-10-22T10:00:37;7.33;;;4.53;;
16705;SDS011;8469;60.136;15.180;2022-10-22T10:03:05;8.58;;;5.47;;
16705;SDS011;8469;60.136;15.180;2022-10-22T10:05:33;8.28;;;5.25;;
16705;SDS011;8469;60.136;15.180;2022-10-22T10:08:11;8.75;;;5.03;;
16705;SDS011;8469;60.136;15.180;2022-10-22T10:10:36;7.72;;;5.40;;
16705;SDS011;8469;60.136;15.180;2022-10-22T10:13:23;12.73;;;7.45;;
16705;SDS011;8469;60.136;15.180;2022-10-22T10:16:05;7.15;;;4.60;;
16705;SDS011;8469;60.136;15.180;2022-10-22T10:21:43;5.87;;;4.72;;
16705;SDS011;8469;60.136;15.180;2022-10-22T10:23:43;8.18;;;5.70;;
16705;SDS011;8469;60.136;15.180;2022-10-22T10:26:10;10.30;;;6.35;;
16705;SDS011;8469;60.136;15.180;2022-10-22T10:28:41;5.40;;;4.23;;
16705;SDS011;8469;60.136;15.180;2022-10-22T10:34:00;7.58;;;4.62;;
16705;SDS011;8469;60.136;15.180;2022-10-22T10:36:44;9.40;;;6.15;;
16705;SDS011;8469;60.136;15.180;2022-10-22T10:39:16;10.28;;;5.40;;
16705;SDS011;8469;60.136;15.180;2022-10-22T10:41:47;33.05;;;13.58;;
16705;SDS011;8469;60.136;15.180;2022-10-22T10:49:35;9.83;;;5.50;;
16705;SDS011;8469;60.136;15.180;2022-10-22T10:54:39;4.90;;;3.98;;
16705;SDS011;8469;60.136;15.180;2022-10-22T10:57:08;7.28;;;4.28;;
16705;SDS011;8469;60.136;15.180;2022-10-22T11:02:23;5.87;;;4.65;;
16705;SDS011;8469;60.136;15.180;2022-10-22T11:07:19;6.03;;;4.75;;
16705;SDS011;8469;60.136;15.180;2022-10-22T11:09:49;7.47;;;4.92;;
16705;SDS011;8469;60.136;15.180;2022-10-22T11:12:17;8.20;;;4.67;;
16705;SDS011;8469;60.136;15.180;2022-10-22T11:14:54;10.90;;;7.08;;
16705;SDS011;8469;60.136;15.180;2022-10-22T11:17:18;7.53;;;5.58;;
16705;SDS011;8469;60.136;15.180;2022-10-22T11:19:50;10.50;;;6.28;;
16705;SDS011;8469;60.136;15.180;2022-10-22T11:22:27;7.60;;;5.72;;
16705;SDS011;8469;60.136;15.180;2022-10-22T11:25:02;8.00;;;5.45;;
16705;SDS011;8469;60.136;15.180;2022-10-22T11:27:30;7.47;;;5.42;;
16705;SDS011;8469;60.136;15.180;2022-10-22T11:30:03;9.93;;;6.65;;
16705;SDS011;8469;60.136;15.180;2022-10-22T11:32:31;8.93;;;6.40;;
16705;SDS011;8469;60.136;15.180;2022-10-22T11:35:00;10.63;;;6.40;;
16705;SDS011;8469;60.136;15.180;2022-10-22T11:37:29;8.35;;;5.58;;
16705;SDS011;8469;60.136;15.180;2022-10-22T11:40:04;8.90;;;5.35;;
16705;SDS011;8469;60.136;15.180;2022-10-22T11:42:32;6.17;;;5.10;;
16705;SDS011;8469;60.136;15.180;2022-10-22T11:47:34;6.25;;;5.08;;
16705;SDS011;8469;60.136;15.180;2022-10-22T11:50:19;7.43;;;5.10;;
16705;SDS011;8469;60.136;15.180;2022-10-22T11:52:52;7.40;;;5.00;;
16705;SDS011;8469;60.136;15.180;2022-10-22T11:55:32;6.03;;;4.05;;
16705;SDS011;8469;60.136;15.180;2022-10-22T11:58:00;5.83;;;4.03;;
16705;SDS011;8469;60.136;15.180;2022-10-22T12:00:33;6.70;;;3.05;;
16705;SDS011;8469;60.136;15.180;2022-10-22T12:03:01;3.52;;;3.17;;
16705;SDS011;8469;60.136;15.180;2022-10-22T12:05:32;5.10;;;4.00;;
16705;SDS011;8469;60.136;15.180;2022-10-22T12:10:48;5.83;;;3.80;;
16705;SDS011;8469;60.136;15.180;2022-10-22T12:13:20;5.27;;;3.40;;
16705;SDS011;8469;60.136;15.180;2022-10-22T12:15:48;4.97;;;3.47;;
16705;SDS011;8469;60.136;15.180;2022-10-22T12:18:16;5.33;;;3.17;;
16705;SDS011;8469;60.136;15.180;2022-10-22T12:20:43;4.62;;;3.70;;
16705;SDS011;8469;60.136;15.180;2022-10-22T12:23:14;6.10;;;4.20;;
16705;SDS011;8469;60.136;15.180;2022-10-22T12:25:41;7.12;;;4.90;;
16705;SDS011;8469;60.136;15.180;2022-10-22T12:28:10;8.40;;;5.90;;
16705;SDS011;8469;60.136;15.180;2022-10-22T12:30:37;4.55;;;4.03;;
16705;SDS011;8469;60.136;15.180;2022-10-22T12:33:05;3.25;;;2.95;;
16705;SDS011;8469;60.136;15.180;2022-10-22T12:35:34;4.85;;;3.55;;
16705;SDS011;8469;60.136;15.180;2022-10-22T12:38:04;4.03;;;3.50;;
16705;SDS011;8469;60.136;15.180;2022-10-22T12:40:32;4.67;;;3.27;;
16705;SDS011;8469;60.136;15.180;2022-10-22T12:43:00;3.10;;;1.80;;
16705;SDS011;8469;60.136;15.180;2022-10-22T12:45:29;2.08;;;1.92;;
16705;SDS011;8469;60.136;15.180;2022-10-22T12:48:31;2.25;;;2.05;;
16705;SDS011;8469;60.136;15.180;2022-10-22T12:50:35;2.02;;;1.85;;
16705;SDS011;8469;60.136;15.180;2022-10-22T12:53:09;2.10;;;2.00;;
16705;SDS011;8469;60.136;15.180;2022-10-22T12:55:32;1.90;;;1.80;;
16705;SDS011;8469;60.136;15.180;2022-10-22T12:58:03;1.98;;;1.80;;
16705;SDS011;8469;60.136;15.180;2022-10-22T13:00:31;3.47;;;2.10;;
16705;SDS011;8469;60.136;15.180;2022-10-22T13:02:58;2.00;;;1.80;;
16705;SDS011;8469;60.136;15.180;2022-10-22T13:05:29;2.83;;;2.27;;
16705;SDS011;8469;60.136;15.180;2022-10-22T13:08:07;2.27;;;2.07;;
16705;SDS011;8469;60.136;15.180;2022-10-22T13:10:30;2.50;;;2.10;;
16705;SDS011;8469;60.136;15.180;2022-10-22T13:12:58;3.17;;;1.98;;
16705;SDS011;8469;60.136;15.180;2022-10-22T13:18:13;3.80;;;3.40;;
16705;SDS011;8469;60.136;15.180;2022-10-22T13:20:34;2.90;;;2.70;;
16705;SDS011;8469;60.136;15.180;2022-10-22T13:23:16;2.55;;;2.35;;
16705;SDS011;8469;60.136;15.180;2022-10-22T13:25:39;2.27;;;1.98;;
16705;SDS011;8469;60.136;15.180;2022-10-22T13:28:21;2.00;;;1.90;;
16705;SDS011;8469;60.136;15.180;2022-10-22T13:30:51;2.52;;;2.33;;
16705;SDS011;8469;60.136;15.180;2022-10-22T13:33:37;2.55;;;2.35;;
16705;SDS011;8469;60.136;15.180;2022-10-22T13:36:02;2.55;;;2.35;;
16705;SDS011;8469;60.136;15.180;2022-10-22T13:38:30;4.90;;;3.20;;
16705;SDS011;8469;60.136;15.180;2022-10-22T13:40:57;2.35;;;2.15;;
16705;SDS011;8469;60.136;15.180;2022-10-22T13:43:25;2.33;;;2.20;;
16705;SDS011;8469;60.136;15.180;2022-10-22T13:45:57;2.50;;;2.30;;
16705;SDS011;8469;60.136;15.180;2022-10-22T13:48:23;3.15;;;2.45;;
16705;SDS011;8469;60.136;15.180;2022-10-22T13:50:51;2.53;;;2.33;;
16705;SDS011;8469;60.136;15.180;2022-10-22T13:53:23;3.23;;;2.50;;
16705;SDS011;8469;60.136;15.180;2022-10-22T13:55:51;3.22;;;2.30;;
16705;SDS011;8469;60.136;15.180;2022-10-22T13:58:19;3.20;;;2.55;;
16705;SDS011;8469;60.136;15.180;2022-10-22T14:00:48;3.05;;;2.75;;
16705;SDS011;8469;60.136;15.180;2022-10-22T14:03:16;4.40;;;2.80;;
16705;SDS011;8469;60.136;15.180;2022-10-22T14:05:47;2.87;;;2.58;;
16705;SDS011;8469;60.136;15.180;2022-10-22T14:08:16;3.05;;;2.75;;
16705;SDS011;8469;60.136;15.180;2022-10-22T14:10:43;2.60;;;2.40;;
16705;SDS011;8469;60.136;15.180;2022-10-22T14:13:11;2.85;;;2.40;;
16705;SDS011;8469;60.136;15.180;2022-10-22T14:15:39;2.80;;;2.60;;
16705;SDS011;8469;60.136;15.180;2022-10-22T14:18:07;2.00;;;1.80;;
16705;SDS011;8469;60.136;15.180;2022-10-22T14:20:36;2.10;;;1.90;;
16705;SDS011;8469;60.136;15.180;2022-10-22T14:23:14;1.90;;;1.80;;
16705;SDS011;8469;60.136;15.180;2022-10-22T14:25:41;9.08;;;3.42;;
16705;SDS011;8469;60.136;15.180;2022-10-22T14:28:12;5.62;;;2.90;;
16705;SDS011;8469;60.136;15.180;2022-10-22T14:30:39;6.47;;;3.65;;
16705;SDS011;8469;60.136;15.180;2022-10-22T14:33:17;8.93;;;3.22;;
16705;SDS011;8469;60.136;15.180;2022-10-22T14:35:50;5.20;;;2.50;;
16705;SDS011;8469;60.136;15.180;2022-10-22T14:38:14;2.33;;;2.02;;
16705;SDS011;8469;60.136;15.180;2022-10-22T14:40:41;2.58;;;2.05;;
16705;SDS011;8469;60.136;15.180;2022-10-22T14:43:10;4.08;;;2.30;;
16705;SDS011;8469;60.136;15.180;2022-10-22T14:45:38;4.80;;;2.83;;
16705;SDS011;8469;60.136;15.180;2022-10-22T14:48:06;2.75;;;2.10;;
16705;SDS011;8469;60.136;15.180;2022-10-22T14:50:33;4.10;;;2.65;;
16705;SDS011;8469;60.136;15.180;2022-10-22T14:53:00;3.00;;;2.65;;
16705;SDS011;8469;60.136;15.180;2022-10-22T14:55:28;2.50;;;2.30;;
16705;SDS011;8469;60.136;15.180;2022-10-22T14:57:55;2.55;;;2.22;;
16705;SDS011;8469;60.136;15.180;2022-10-22T15:00:23;3.20;;;2.20;;
16705;SDS011;8469;60.136;15.180;2022-10-22T15:02:50;4.72;;;2.67;;
16705;SDS011;8469;60.136;15.180;2022-10-22T15:05:18;3.10;;;2.30;;
16705;SDS011;8469;60.136;15.180;2022-10-22T15:07:45;4.30;;;2.67;;
16705;SDS011;8469;60.136;15.180;2022-10-22T15:10:13;4.67;;;2.77;;
16705;SDS011;8469;60.136;15.180;2022-10-22T15:12:40;4.22;;;3.02;;
16705;SDS011;8469;60.136;15.180;2022-10-22T15:15:08;4.78;;;3.50;;
16705;SDS011;8469;60.136;15.180;2022-10-22T15:17:35;4.00;;;3.20;;
16705;SDS011;8469;60.136;15.180;2022-10-22T15:20:03;3.77;;;2.90;;
16705;SDS011;8469;60.136;15.180;2022-10-22T15:22:31;6.33;;;3.40;;
16705;SDS011;8469;60.136;15.180;2022-10-22T15:25:01;4.60;;;3.30;;
16705;SDS011;8469;60.136;15.180;2022-10-22T15:27:28;6.72;;;3.70;;
16705;SDS011;8469;60.136;15.180;2022-10-22T15:29:56;4.80;;;3.50;;
16705;SDS011;8469;60.136;15.180;2022-10-22T15:32:25;6.55;;;4.95;;
16705;SDS011;8469;60.136;15.180;2022-10-22T15:34:54;4.78;;;3.58;;
16705;SDS011;8469;60.136;15.180;2022-10-22T15:37:21;3.60;;;3.10;;
16705;SDS011;8469;60.136;15.180;2022-10-22T15:39:49;3.20;;;2.90;;
16705;SDS011;8469;60.136;15.180;2022-10-22T15:42:16;4.60;;;2.50;;
16705;SDS011;8469;60.136;15.180;2022-10-22T15:44:48;3.02;;;2.70;;
16705;SDS011;8469;60.136;15.180;2022-10-22T15:47:15;4.50;;;2.92;;
16705;SDS011;8469;60.136;15.180;2022-10-22T15:49:43;4.17;;;3.20;;
16705;SDS011;8469;60.136;15.180;2022-10-22T15:52:11;4.12;;;3.45;;
16705;SDS011;8469;60.136;15.180;2022-10-22T15:54:38;4.63;;;3.30;;
16705;SDS011;8469;60.136;15.180;2022-10-22T15:57:07;4.08;;;2.87;;
16705;SDS011;8469;60.136;15.180;2022-10-22T15:59:36;5.25;;;3.00;;